Terminal Aerodrome Forecast
Issued by NWS Cleveland, OH

Home | Current Version | Previous Version | Graphics & Text | Print | Product List | Glossary On
Versions: 1 2 3 4 5 6 7 8 9 10 11 12 13 14 15 16 17 18 19 20 21 22 23 24
586
FTUS41 KCLE 221201 RRA
TAFTOL
TAF
KTOL 221201Z 2212/2312 00000KT 4SM BR BKN015
      TEMPO 2212/2214 BKN008
     FM221500 25007KT P6SM BKN025
     FM221800 26009KT P6SM VCTS BKN050CB
     FM222300 32010KT P6SM BKN045=

USA.gov is the U.S. government's official web portal to all federal, state and local government web resources and services.